Wuyishan, China
Current Conditions -  °F | °C
As of 6:00 PM on Wednesday 26 Nov 2014 (Local Time) from ZSFZ Reporting Station
Overcast Overcast  
Wind Chill: 66°   Ceiling: 1900
Heat Index: 66°   Visibility: 6mi
Dew Point: 57°   Wind: 16mph
Humidity: 73%   Direction: 40°NE
Pressure: 30.03"   Gusts: NA
Location:  27.77°N, 118.03°E
Report Text: ZSFZ 261000Z 04007MPS 9999 BKN019 OVC025 19/14 Q1017 NOSIG
Loading
Personal Weather Stations






























Interactive Weather Map New forecast layout! Learn more

10-Day Weather Forecast

Advertisements
Track Severe Weather on mobile